createdAt,value
2019-04-26T00:01:56.744Z,101468.17
2019-04-26T00:05:59.231Z,101457.64
2019-04-26T00:10:03.397Z,101443.55
2019-04-26T00:14:30.931Z,101437.91
2019-04-26T00:18:33.151Z,101428.09
2019-04-26T00:22:35.512Z,101434.84
2019-04-26T00:26:37.618Z,101434.94
2019-04-26T00:30:39.841Z,101434.94
2019-04-26T00:34:42.981Z,101450.25
2019-04-26T00:38:45.441Z,101451.14
2019-04-26T00:42:48.009Z,101455.25
2019-04-26T00:46:51.096Z,101449.44
2019-04-26T00:50:54.485Z,101445.34
2019-04-26T00:54:58.509Z,101451.18
2019-04-26T00:59:01.893Z,101452.67
2019-04-26T01:03:04.154Z,101438.77
2019-04-26T01:07:06.438Z,101440.87
2019-04-26T01:11:08.936Z,101448.06
2019-04-26T01:15:11.524Z,101430.98
2019-04-26T01:19:17.095Z,101431.50
2019-04-26T01:23:20.999Z,101425.64
2019-04-26T01:27:26.308Z,101413.58
2019-04-26T01:31:31.924Z,101408.42
2019-04-26T01:35:34.437Z,101413.08
2019-04-26T01:39:40.541Z,101405.21
2019-04-26T01:44:03.408Z,101411.68
2019-04-26T01:48:29.221Z,101434.81
2019-04-26T01:52:32.619Z,101454.69
2019-04-26T01:56:36.678Z,101454.31
2019-04-26T02:01:01.076Z,101439.43
2019-04-26T02:05:07.860Z,101446.37
2019-04-26T02:09:11.584Z,101434.70
2019-04-26T02:13:14.093Z,101421.05
2019-04-26T02:17:16.372Z,101419.60
2019-04-26T02:21:26.390Z,101413.26
2019-04-26T02:25:30.097Z,101417.66
2019-04-26T02:29:32.782Z,101412.67
2019-04-26T02:33:36.783Z,101409.14
2019-04-26T02:37:39.365Z,101418.75
2019-04-26T02:41:42.822Z,101410.48
2019-04-26T02:46:20.853Z,101410.45
2019-04-26T02:50:35.369Z,101413.27
2019-04-26T02:54:46.803Z,101394.64
2019-04-26T02:59:20.758Z,101398.76
2019-04-26T03:03:25.856Z,101392.92
2019-04-26T03:07:46.809Z,101399.75
2019-04-26T03:11:52.160Z,101408.45
2019-04-26T03:16:18.526Z,101387.42
2019-04-26T03:20:24.195Z,101372.95
2019-04-26T03:24:35.072Z,101367.70
2019-04-26T03:28:44.602Z,101360.06
2019-04-26T03:33:16.567Z,101347.93
2019-04-26T03:38:00.964Z,101344.27
2019-04-26T03:42:21.052Z,101333.70
2019-04-26T03:46:33.604Z,101318.17
2019-04-26T03:50:44.916Z,101317.41
2019-04-26T03:54:50.123Z,101328.72
2019-04-26T03:59:31.617Z,101324.23
2019-04-26T04:03:53.457Z,101321.08
2019-04-26T04:07:58.501Z,101309.03
2019-04-26T04:12:11.414Z,101301.62
2019-04-26T04:17:22.437Z,101299.42
2019-04-26T04:21:57.684Z,101317.91
2019-04-26T04:26:02.623Z,101301.73
2019-04-26T04:30:20.787Z,101297.72
2019-04-26T04:34:29.617Z,101296.38
2019-04-26T04:38:48.426Z,101288.84
2019-04-26T04:43:26.114Z,101280.58
2019-04-26T04:47:37.534Z,101278.27
2019-04-26T04:51:51.543Z,101268.28
2019-04-26T04:56:34.789Z,101275.84
2019-04-26T05:01:03.608Z,101278.51
2019-04-26T05:05:36.381Z,101297.09
2019-04-26T05:09:49.766Z,101317.66
2019-04-26T05:14:01.287Z,101347.46
2019-04-26T05:18:29.337Z,101351.80
2019-04-26T05:23:07.180Z,101340.40
2019-04-26T05:28:09.445Z,101348.57
2019-04-26T05:32:34.269Z,101363.86
2019-04-26T05:37:00.471Z,101358.89
2019-04-26T05:41:33.671Z,101355.48
2019-04-26T05:46:19.205Z,101345.16
2019-04-26T05:51:02.207Z,101347.69
2019-04-26T05:56:07.260Z,101354.61
2019-04-26T06:00:38.110Z,101352.70
2019-04-26T06:05:26.880Z,101338.08
2019-04-26T06:09:54.481Z,101345.98
2019-04-26T06:14:38.527Z,101331.86
2019-04-26T06:19:07.546Z,101315.30
2019-04-26T06:23:32.160Z,101266.51
2019-04-26T06:27:54.456Z,101277.95
2019-04-26T06:32:11.103Z,101291.30
2019-04-26T06:36:23.511Z,101328.61
2019-04-26T06:40:48.963Z,101310.06
2019-04-26T06:46:00.968Z,101330.70
2019-04-26T06:50:49.729Z,101316.41
2019-04-26T06:55:47.616Z,101280.67
2019-04-26T07:00:18.387Z,101292.02
2019-04-26T07:04:31.468Z,101273.89
2019-04-26T07:08:57.808Z,101268.60
2019-04-26T07:13:29.725Z,101267.50
2019-04-26T07:18:24.844Z,101265.91
2019-04-26T07:23:12.589Z,101300.86
2019-04-26T07:27:25.163Z,101314.06
2019-04-26T07:31:36.469Z,101335.27
2019-04-26T07:36:04.087Z,101307.79
2019-04-26T07:40:55.115Z,101310.52
2019-04-26T07:45:30.430Z,101291.81
2019-04-26T07:50:31.836Z,101289.78
2019-04-26T07:55:03.242Z,101286.55
2019-04-26T07:59:43.941Z,101258.00
2019-04-26T08:03:57.451Z,101249.80
2019-04-26T08:08:01.649Z,101300.67
2019-04-26T08:12:08.224Z,101317.08
2019-04-26T08:16:34.677Z,101264.39
2019-04-26T08:20:48.503Z,101280.32
2019-04-26T08:24:53.269Z,101275.86
2019-04-26T08:29:00.603Z,101264.34
2019-04-26T08:33:07.430Z,101221.58
2019-04-26T08:37:24.258Z,101226.31
2019-04-26T08:41:27.024Z,101214.23
2019-04-26T08:46:01.981Z,101210.66
2019-04-26T08:50:15.181Z,101278.81
2019-04-26T08:54:27.641Z,101248.53
2019-04-26T08:58:32.748Z,101255.61
2019-04-26T09:03:11.318Z,101237.30
2019-04-26T09:07:10.747Z,101251.02
2019-04-26T09:11:24.085Z,101261.84
2019-04-26T09:15:24.966Z,101230.17
2019-04-26T09:19:30.563Z,101245.45
2019-04-26T09:23:51.836Z,101209.66
2019-04-26T09:27:59.657Z,101203.47
2019-04-26T09:32:09.416Z,101217.05
2019-04-26T09:36:11.801Z,101209.61
2019-04-26T09:40:21.057Z,101251.58
2019-04-26T09:44:28.216Z,101211.82
2019-04-26T09:49:08.556Z,101213.72
2019-04-26T09:53:11.013Z,101216.17
2019-04-26T09:57:13.151Z,101182.87
2019-04-26T10:01:15.185Z,101190.43
2019-04-26T10:05:17.771Z,101212.23
2019-04-26T10:09:22.705Z,101214.48
2019-04-26T10:13:49.747Z,101215.53
2019-04-26T10:17:52.507Z,101211.00
2019-04-26T10:21:54.619Z,101198.42
2019-04-26T10:25:56.935Z,101196.84
2019-04-26T10:30:07.650Z,101192.80
2019-04-26T10:34:07.797Z,101194.22
2019-04-26T10:38:07.938Z,101192.78
2019-04-26T10:42:10.157Z,101186.88
2019-04-26T10:46:12.196Z,101173.31
2019-04-26T10:50:14.718Z,101171.05
2019-04-26T10:54:19.458Z,101165.80
2019-04-26T10:58:46.689Z,101193.00
2019-04-26T11:02:49.022Z,101182.40
2019-04-26T11:06:51.068Z,101189.30
2019-04-26T11:10:53.073Z,101179.95
2019-04-26T11:14:56.989Z,101181.02
2019-04-26T11:19:01.220Z,101168.25
2019-04-26T11:23:04.385Z,101165.09
2019-04-26T11:27:09.671Z,101160.96
2019-04-26T11:31:10.371Z,101152.78
2019-04-26T11:35:12.599Z,101158.37
2019-04-26T11:39:16.875Z,101146.88
2019-04-26T11:43:19.663Z,101141.30
2019-04-26T11:47:22.457Z,101140.12
2019-04-26T11:51:27.538Z,101138.27
2019-04-26T11:55:29.797Z,101134.66
2019-04-26T11:59:33.763Z,101116.08
2019-04-26T12:03:35.998Z,101113.19
2019-04-26T12:07:49.539Z,101106.73
2019-04-26T12:12:03.961Z,101112.02
2019-04-26T12:15:55.612Z,101101.09
2019-04-26T12:19:58.122Z,101099.13
2019-04-26T12:24:00.259Z,101091.00
2019-04-26T12:28:06.059Z,101090.72
2019-04-26T12:32:06.654Z,101093.92
2019-04-26T12:36:09.467Z,101109.82
2019-04-26T12:40:13.355Z,101122.27
2019-04-26T12:44:15.935Z,101116.16
2019-04-26T12:48:21.541Z,101109.39
2019-04-26T12:52:23.765Z,101099.60
2019-04-26T12:56:26.582Z,101089.70
2019-04-26T13:00:32.854Z,101086.91
2019-04-26T13:04:36.324Z,101073.64
2019-04-26T13:08:37.632Z,101068.67
2019-04-26T13:13:08.230Z,101059.77
2019-04-26T13:17:13.899Z,101064.47
2019-04-26T13:21:16.036Z,101051.45
2019-04-26T13:25:26.264Z,101047.75
2019-04-26T17:18:23.881Z,100890.93
2019-04-26T17:22:44.225Z,100888.56
2019-04-26T17:26:44.906Z,100887.52
2019-04-26T17:30:47.072Z,100886.93
2019-04-26T17:34:49.518Z,100887.49
2019-04-26T17:38:51.695Z,100889.80
2019-04-26T17:42:53.921Z,100893.43
2019-04-26T17:46:59.499Z,100894.49
2019-04-26T17:51:00.522Z,100892.09
2019-04-26T17:55:02.603Z,100898.34
2019-04-26T17:59:09.408Z,100896.44
2019-04-26T18:03:13.128Z,100895.84
2019-04-26T18:07:34.612Z,100885.73
2019-04-26T18:11:19.569Z,100886.31
2019-04-26T18:15:20.229Z,100879.27
2019-04-26T18:19:42.330Z,100875.31
2019-04-26T18:23:44.799Z,100874.31
2019-04-26T18:27:46.825Z,100875.85
2019-04-26T18:31:49.168Z,100882.97
2019-04-26T18:35:55.938Z,100879.02
2019-04-26T18:39:57.438Z,100883.88
2019-04-26T18:43:59.744Z,100880.18
2019-04-26T18:48:04.792Z,100883.44
2019-04-26T18:52:08.882Z,100881.15
2019-04-26T18:56:12.641Z,100873.31
2019-04-26T19:00:26.508Z,100868.16
2019-04-26T19:04:27.083Z,100869.47
2019-04-26T19:08:29.205Z,100863.25
2019-04-26T19:12:32.530Z,100859.28
2019-04-26T19:16:59.270Z,100856.72
2019-04-26T19:21:26.889Z,100846.66
2019-04-26T19:25:35.654Z,100849.56
2019-04-26T19:29:36.241Z,100844.95
2019-04-26T19:33:38.502Z,100850.89
2019-04-26T19:37:40.727Z,100845.86
2019-04-26T19:41:43.176Z,100848.38
2019-04-26T19:46:10.370Z,100846.94
2019-04-26T19:50:50.535Z,100843.78
2019-04-26T19:55:24.367Z,100844.70
2019-04-26T19:59:27.533Z,100837.55
2019-04-26T20:03:32.052Z,100837.06
2019-04-26T20:07:34.433Z,100837.39
2019-04-26T20:11:36.655Z,100835.53
2019-04-26T20:15:38.783Z,100839.40
2019-04-26T20:19:42.648Z,100835.12
2019-04-26T20:23:47.323Z,100838.32
2019-04-26T20:27:49.248Z,100833.83
2019-04-26T20:32:09.068Z,100834.94
2019-04-26T20:36:11.416Z,100835.73
2019-04-26T20:40:20.210Z,100835.88
2019-04-26T20:44:23.778Z,100834.20
2019-04-26T20:48:25.548Z,100829.53
2019-04-26T20:52:25.944Z,100829.86
2019-04-26T20:56:28.213Z,100824.11
2019-04-26T21:00:31.666Z,100825.66
2019-04-26T21:04:38.194Z,100819.19
2019-04-26T21:08:38.852Z,100830.91
2019-04-26T21:12:41.801Z,100821.17
2019-04-26T21:16:49.396Z,100817.75
2019-04-26T21:20:47.845Z,100817.77
2019-04-26T21:24:55.357Z,100822.09
2019-04-26T21:29:28.008Z,100821.58
2019-04-26T21:33:39.028Z,100811.67
2019-04-26T21:37:45.469Z,100808.15
2019-04-26T21:41:48.525Z,100795.78
2019-04-26T21:45:50.791Z,100806.33
2019-04-26T21:49:58.914Z,100814.98
2019-04-26T21:53:57.122Z,100804.14
2019-04-26T21:57:59.435Z,100809.86
2019-04-26T22:02:03.384Z,100799.95
2019-04-26T22:06:05.957Z,100793.81
2019-04-26T22:10:14.981Z,100787.39
2019-04-26T22:14:23.521Z,100785.95
2019-04-26T22:18:35.077Z,100781.69
2019-04-26T22:22:56.234Z,100784.04
2019-04-26T22:26:58.575Z,100780.34
2019-04-26T22:31:06.822Z,100776.03
2019-04-26T22:35:04.909Z,100776.41
2019-04-26T22:39:11.095Z,100777.77
2019-04-26T22:43:30.679Z,100778.39
2019-04-26T22:47:44.023Z,100769.55
2019-04-26T22:51:46.053Z,100777.66
2019-04-26T22:55:48.177Z,100774.86
2019-04-26T22:59:50.745Z,100777.53
2019-04-26T23:03:53.295Z,100767.38
2019-04-26T23:07:59.269Z,100769.05
2019-04-26T23:12:06.739Z,100762.02
2019-04-26T23:16:40.411Z,100758.66
2019-04-26T23:20:50.091Z,100760.34
2019-04-26T23:24:54.530Z,100753.78
2019-04-26T23:28:56.165Z,100755.12
2019-04-26T23:32:58.499Z,100749.55
2019-04-26T23:37:00.759Z,100748.22
2019-04-26T23:41:06.964Z,100739.10
2019-04-26T23:45:10.823Z,100740.91
2019-04-26T23:49:11.868Z,100737.05
2019-04-26T23:53:14.136Z,100741.51
2019-04-26T23:57:16.230Z,100736.34
